Time;durP1;ratioP1;P1;durP2;ratioP2;P2;SDS_P1;SDS_P2;PMS_P1;PMS_P2;Temp;Humidity;BMP_temperature;BMP_pressure;BME280_temperature;BME280_humidity;BME280_pressure;Samples;Min_cycle;Max_cycle;Signal;HPM_P1;HPM_P2
2022/08/28 00:00:27;;;;;;;;;;;23.90;54.70;;;;;;5043621;28;89549;-36
2022/08/28 00:02:53;;;;;;;;;;;23.80;54.70;;;;;;5046859;28;86943;-37
2022/08/28 00:05:20;;;;;;;;;;;23.90;54.80;;;;;;5043192;28;88891;-37
2022/08/28 00:07:46;;;;;;;;;;;23.80;54.80;;;;;;5043864;28;87115;-37
2022/08/28 00:10:14;;;;;;;;;;;23.80;54.80;;;;;;5044088;27;87325;-36
2022/08/28 00:12:40;;;;;;;;;;;23.70;54.80;;;;;;5043174;28;88545;-36
2022/08/28 00:15:07;;;;;;;;;;;23.80;54.90;;;;;;5043671;28;87076;-36
2022/08/28 00:17:33;;;;;;;;;;;23.80;54.80;;;;;;5043836;27;88040;-36
2022/08/28 00:19:58;;;;;;;;;;;23.70;54.80;;;;;;5043552;28;88006;-36
2022/08/28 00:22:24;;;;;;;;;;;23.70;54.80;;;;;;5043913;28;86353;-36
2022/08/28 00:24:49;;;;;;;;;;;23.70;54.90;;;;;;5046414;28;86972;-37
2022/08/28 00:29:59;;;;;;;;;;;23.70;55.00;;;;;;5043142;27;88007;-37
2022/08/28 00:32:25;;;;;;;;;;;23.60;54.90;;;;;;5043235;28;89352;-36
2022/08/28 00:34:51;;;;;;;;;;;23.60;54.90;;;;;;5043474;28;87127;-37
2022/08/28 00:37:17;;;;;;;;;;;23.60;54.90;;;;;;5043554;28;87416;-37
2022/08/28 00:39:42;;;;;;;;;;;23.60;55.00;;;;;;5043251;28;88169;-36
2022/08/28 00:42:09;;;;;;;;;;;23.60;55.00;;;;;;5043520;28;87027;-37
2022/08/28 00:44:35;;;;;;;;;;;23.60;55.00;;;;;;5045770;27;88880;-37
2022/08/28 00:47:01;;;;;;;;;;;23.60;55.00;;;;;;5043829;28;86359;-38
2022/08/28 00:49:31;;;;;;;;;;;23.60;55.00;;;;;;5043796;27;87590;-37
2022/08/28 00:52:07;;;;;;;;;;;23.50;55.00;;;;;;5042760;28;88018;-36
2022/08/28 00:54:35;;;;;;;;;;;23.50;55.10;;;;;;5041298;28;87998;-37
2022/08/28 00:57:05;;;;;;;;;;;23.50;55.00;;;;;;5043224;28;87610;-36
2022/08/28 00:59:31;;;;;;;;;;;23.50;55.10;;;;;;5042944;28;88299;-37
2022/08/28 01:01:57;;;;;;;;;;;23.40;55.10;;;;;;5043373;28;87082;-36
2022/08/28 01:04:24;;;;;;;;;;;23.50;55.10;;;;;;5042857;27;89117;-37
2022/08/28 01:06:52;;;;;;;;;;;23.40;55.10;;;;;;5045715;28;88254;-37
2022/08/28 01:09:19;;;;;;;;;;;23.40;55.10;;;;;;5042891;28;87946;-36
2022/08/28 01:11:46;;;;;;;;;;;23.40;55.10;;;;;;5043337;28;87632;-37
2022/08/28 01:14:12;;;;;;;;;;;23.40;55.10;;;;;;5043053;28;87135;-38
2022/08/28 01:16:39;;;;;;;;;;;23.40;55.20;;;;;;5042900;27;87441;-37
2022/08/28 01:19:08;;;;;;;;;;;23.40;55.10;;;;;;5041856;28;88287;-39
2022/08/28 01:21:33;;;;;;;;;;;23.30;55.10;;;;;;5042487;28;87498;-36
2022/08/28 01:24:05;;;;;;;;;;;23.30;55.20;;;;;;5043026;28;87212;-36
2022/08/28 01:26:31;;;;;;;;;;;23.30;55.20;;;;;;5042304;28;89331;-37
2022/08/28 01:28:57;;;;;;;;;;;23.30;55.30;;;;;;5046050;28;87010;-37
2022/08/28 01:31:23;;;;;;;;;;;23.30;55.30;;;;;;5042046;28;87701;-37
2022/08/28 01:33:49;;;;;;;;;;;23.20;55.20;;;;;;5042781;28;87106;-37
2022/08/28 01:36:16;;;;;;;;;;;23.30;55.30;;;;;;5043052;28;87543;-36
2022/08/28 01:38:43;;;;;;;;;;;23.20;55.20;;;;;;5042224;28;88039;-36
2022/08/28 01:41:10;;;;;;;;;;;23.20;55.20;;;;;;5042565;28;86921;-36
2022/08/28 01:43:37;;;;;;;;;;;23.20;55.30;;;;;;5041514;28;88532;-37
2022/08/28 01:46:03;;;;;;;;;;;23.10;55.30;;;;;;5042119;28;87965;-37
2022/08/28 01:48:31;;;;;;;;;;;23.10;55.30;;;;;;5042786;28;87012;-37
2022/08/28 01:50:56;;;;;;;;;;;23.10;55.30;;;;;;5045295;28;87011;-37
2022/08/28 01:53:23;;;;;;;;;;;23.10;55.30;;;;;;5042579;28;87149;-37
2022/08/28 01:55:50;;;;;;;;;;;23.10;55.30;;;;;;5042466;28;87042;-36
2022/08/28 01:58:15;;;;;;;;;;;23.10;55.40;;;;;;5041953;28;89372;-37
2022/08/28 02:00:41;;;;;;;;;;;23.10;55.30;;;;;;5042889;28;86333;-37
2022/08/28 02:03:07;;;;;;;;;;;23.10;55.40;;;;;;5042544;27;86810;-37
2022/08/28 02:05:33;;;;;;;;;;;23.10;55.40;;;;;;5042052;28;88171;-36
2022/08/28 02:08:00;;;;;;;;;;;23.10;55.40;;;;;;5041807;28;88425;-36
2022/08/28 02:10:26;;;;;;;;;;;23.00;55.30;;;;;;5042305;27;87484;-37
2022/08/28 02:12:54;;;;;;;;;;;23.00;55.40;;;;;;5044626;28;88118;-37
2022/08/28 02:15:20;;;;;;;;;;;23.00;55.40;;;;;;5041930;28;87437;-36
2022/08/28 02:17:46;;;;;;;;;;;23.00;55.50;;;;;;5041964;28;87933;-37
2022/08/28 02:20:11;;;;;;;;;;;23.00;55.60;;;;;;5042436;28;87019;-36
2022/08/28 02:22:37;;;;;;;;;;;22.90;55.50;;;;;;5041587;28;87424;-37
2022/08/28 02:25:03;;;;;;;;;;;22.90;55.50;;;;;;5042496;28;87224;-37
2022/08/28 02:27:29;;;;;;;;;;;22.90;55.60;;;;;;5041978;28;87135;-38
2022/08/28 02:29:56;;;;;;;;;;;22.90;55.60;;;;;;5041820;27;88770;-36
2022/08/28 02:32:22;;;;;;;;;;;22.90;55.60;;;;;;5040792;28;90634;-37
2022/08/28 02:34:47;;;;;;;;;;;22.90;55.60;;;;;;5044809;28;86984;-37
2022/08/28 02:37:13;;;;;;;;;;;22.80;55.60;;;;;;5041836;28;88178;-36
2022/08/28 02:39:39;;;;;;;;;;;22.90;55.60;;;;;;5041770;28;87135;-36
2022/08/28 02:42:05;;;;;;;;;;;22.80;55.60;;;;;;5042058;27;87471;-37
2022/08/28 02:44:30;;;;;;;;;;;22.80;55.70;;;;;;5041666;28;87216;-36
2022/08/28 02:46:56;;;;;;;;;;;22.80;55.70;;;;;;5042048;28;87108;-37
2022/08/28 02:49:22;;;;;;;;;;;22.70;55.70;;;;;;5042401;27;88075;-37
2022/08/28 02:51:48;;;;;;;;;;;22.70;55.80;;;;;;5041297;28;89519;-37
2022/08/28 02:54:14;;;;;;;;;;;22.70;55.80;;;;;;5045252;27;87094;-38
2022/08/28 02:56:39;;;;;;;;;;;22.70;55.80;;;;;;5044272;28;88931;-37
2022/08/28 02:59:05;;;;;;;;;;;22.70;55.70;;;;;;5045297;28;87005;-36
2022/08/28 03:01:32;;;;;;;;;;;22.70;55.90;;;;;;5045208;27;87347;-36
2022/08/28 03:03:58;;;;;;;;;;;22.60;55.80;;;;;;5044434;28;89687;-36
2022/08/28 03:06:23;;;;;;;;;;;22.60;55.80;;;;;;5045117;28;87161;-36
2022/08/28 03:08:49;;;;;;;;;;;22.60;55.80;;;;;;5044908;28;87584;-36
2022/08/28 03:11:14;;;;;;;;;;;22.60;55.90;;;;;;5044733;28;88157;-37
2022/08/28 03:13:41;;;;;;;;;;;22.60;55.90;;;;;;5045071;28;86433;-37
2022/08/28 03:16:06;;;;;;;;;;;22.50;56.00;;;;;;5047328;27;88536;-35
2022/08/28 03:18:32;;;;;;;;;;;22.50;55.90;;;;;;5044920;28;87063;-36
2022/08/28 03:20:58;;;;;;;;;;;22.50;55.90;;;;;;5044378;28;87821;-36
2022/08/28 03:23:26;;;;;;;;;;;22.50;56.50;;;;;;5044415;28;87728;-36
2022/08/28 03:25:55;;;;;;;;;;;22.50;56.00;;;;;;5044307;28;87109;-37
2022/08/28 03:28:20;;;;;;;;;;;22.50;56.00;;;;;;5044793;28;87544;-37
2022/08/28 03:30:46;;;;;;;;;;;22.50;56.10;;;;;;5044214;28;88514;-37
2022/08/28 03:33:12;;;;;;;;;;;22.50;56.00;;;;;;5044491;28;87082;-36
2022/08/28 03:35:37;;;;;;;;;;;22.40;56.00;;;;;;5044678;27;87748;-36
2022/08/28 03:38:03;;;;;;;;;;;22.40;55.90;;;;;;5047424;28;88655;-37
2022/08/28 03:40:29;;;;;;;;;;;22.40;55.90;;;;;;5044528;27;87331;-36
2022/08/28 03:42:55;;;;;;;;;;;22.40;56.00;;;;;;5043825;28;89408;-36
2022/08/28 03:45:20;;;;;;;;;;;22.40;56.00;;;;;;5043707;28;88048;-37
2022/08/28 03:47:47;;;;;;;;;;;22.30;56.00;;;;;;5044582;27;88334;-36
2022/08/28 03:50:12;;;;;;;;;;;22.30;56.10;;;;;;5044019;28;87260;-37
2022/08/28 03:52:39;;;;;;;;;;;22.30;56.10;;;;;;5044388;28;87115;-37
2022/08/28 03:55:07;;;;;;;;;;;22.30;56.10;;;;;;5044224;27;88765;-37
2022/08/28 03:57:33;;;;;;;;;;;22.30;56.20;;;;;;5043849;28;88898;-38
2022/08/28 03:59:59;;;;;;;;;;;22.30;56.10;;;;;;5047063;28;87245;-38
2022/08/28 04:02:24;;;;;;;;;;;22.20;56.10;;;;;;5044452;28;87478;-38
2022/08/28 04:04:50;;;;;;;;;;;22.30;56.20;;;;;;5044076;27;87061;-38
2022/08/28 04:07:16;;;;;;;;;;;22.20;56.10;;;;;;5044113;28;87165;-38
2022/08/28 04:09:42;;;;;;;;;;;22.20;56.10;;;;;;5043016;28;89066;-38
2022/08/28 04:12:08;;;;;;;;;;;22.20;56.10;;;;;;5044200;28;87104;-38
2022/08/28 04:14:34;;;;;;;;;;;22.20;56.20;;;;;;5043659;27;87497;-38
2022/08/28 04:16:59;;;;;;;;;;;22.20;56.30;;;;;;5043462;28;87924;-39
2022/08/28 04:19:25;;;;;;;;;;;22.20;56.20;;;;;;5043894;28;87204;-38
2022/08/28 04:21:50;;;;;;;;;;;22.10;56.20;;;;;;5046101;28;87623;-39
2022/08/28 04:24:16;;;;;;;;;;;22.10;56.20;;;;;;5043986;28;87014;-39
2022/08/28 04:26:41;;;;;;;;;;;22.10;56.20;;;;;;5044430;27;87400;-38
2022/08/28 04:29:07;;;;;;;;;;;22.10;56.20;;;;;;5043304;28;88042;-38
2022/08/28 04:31:33;;;;;;;;;;;22.10;56.20;;;;;;5043497;28;86873;-39
2022/08/28 04:34:00;;;;;;;;;;;22.10;56.20;;;;;;5043177;27;87895;-38
2022/08/28 04:36:25;;;;;;;;;;;22.10;56.30;;;;;;5041415;28;91134;-38
2022/08/28 04:38:51;;;;;;;;;;;22.00;56.20;;;;;;5043684;28;86982;-39
2022/08/28 04:41:16;;;;;;;;;;;22.10;56.30;;;;;;5046091;27;88915;-38
2022/08/28 04:43:42;;;;;;;;;;;22.00;56.30;;;;;;5043482;28;87124;-38
2022/08/28 04:46:10;;;;;;;;;;;22.00;56.30;;;;;;5043444;28;87031;-38
2022/08/28 04:48:36;;;;;;;;;;;22.00;56.30;;;;;;5042849;28;89520;-39
2022/08/28 04:51:04;;;;;;;;;;;22.00;56.30;;;;;;5044037;28;86481;-39
2022/08/28 04:53:29;;;;;;;;;;;22.00;56.40;;;;;;5043137;27;88314;-38
2022/08/28 04:55:57;;;;;;;;;;;22.00;56.40;;;;;;5042894;28;87959;-38
2022/08/28 04:58:23;;;;;;;;;;;21.90;56.30;;;;;;5042371;28;88076;-38
2022/08/28 05:00:49;;;;;;;;;;;21.90;56.40;;;;;;5043153;28;88985;-38
2022/08/28 05:03:15;;;;;;;;;;;21.90;56.30;;;;;;5045804;28;88120;-38
2022/08/28 05:05:45;;;;;;;;;;;21.90;56.30;;;;;;5043105;27;89222;-38
2022/08/28 05:08:12;;;;;;;;;;;21.90;56.40;;;;;;5042635;28;88102;-39
2022/08/28 05:10:39;;;;;;;;;;;21.90;56.50;;;;;;5042670;28;87229;-39
2022/08/28 05:13:05;;;;;;;;;;;21.90;56.40;;;;;;5042128;28;89084;-39
2022/08/28 05:15:30;;;;;;;;;;;21.90;56.40;;;;;;5042571;28;88138;-39
2022/08/28 05:17:58;;;;;;;;;;;22.00;56.40;;;;;;5042118;27;87142;-39
2022/08/28 05:20:23;;;;;;;;;;;21.90;56.30;;;;;;5042430;27;88666;-39
2022/08/28 05:22:49;;;;;;;;;;;21.90;56.30;;;;;;5041569;28;88958;-38
2022/08/28 05:25:14;;;;;;;;;;;21.90;56.40;;;;;;5045397;28;87134;-38
2022/08/28 05:27:40;;;;;;;;;;;21.90;56.40;;;;;;5041981;28;88079;-39
2022/08/28 05:30:06;;;;;;;;;;;21.90;56.40;;;;;;5042796;28;87116;-39
2022/08/28 05:32:31;;;;;;;;;;;21.90;56.30;;;;;;5042294;27;88509;-39
2022/08/28 05:34:57;;;;;;;;;;;21.90;56.40;;;;;;5042052;28;88326;-38
2022/08/28 05:37:22;;;;;;;;;;;21.90;56.50;;;;;;5042167;28;87031;-38
2022/08/28 05:39:48;;;;;;;;;;;21.80;56.50;;;;;;5042866;28;87363;-39
2022/08/28 05:42:13;;;;;;;;;;;21.90;56.60;;;;;;5042035;28;87904;-39
2022/08/28 05:44:39;;;;;;;;;;;21.80;56.60;;;;;;5042254;28;87131;-39
2022/08/28 05:47:04;;;;;;;;;;;21.80;56.60;;;;;;5044380;28;88018;-37
2022/08/28 05:49:30;;;;;;;;;;;21.80;56.80;;;;;;5042288;28;87131;-38
2022/08/28 05:51:55;;;;;;;;;;;21.80;56.80;;;;;;5042233;28;87590;-38
2022/08/28 05:54:21;;;;;;;;;;;21.80;56.80;;;;;;5041741;28;89744;-39
2022/08/28 05:56:47;;;;;;;;;;;21.80;56.80;;;;;;5042001;28;87524;-39
2022/08/28 05:59:14;;;;;;;;;;;21.70;56.80;;;;;;5042284;27;87312;-38
2022/08/28 06:01:41;;;;;;;;;;;21.70;56.80;;;;;;5041539;28;89070;-39
2022/08/28 06:04:09;;;;;;;;;;;21.80;56.80;;;;;;5042440;28;86357;-39
2022/08/28 06:06:37;;;;;;;;;;;21.80;56.80;;;;;;5042127;27;87013;-38
2022/08/28 06:09:04;;;;;;;;;;;21.70;56.80;;;;;;5044501;28;88560;-38
2022/08/28 06:11:30;;;;;;;;;;;21.70;56.90;;;;;;5041423;27;88014;-39
2022/08/28 06:13:56;;;;;;;;;;;21.80;57.00;;;;;;5041319;28;89353;-38
2022/08/28 06:16:22;;;;;;;;;;;21.80;57.00;;;;;;5041984;28;87080;-38
2022/08/28 06:18:49;;;;;;;;;;;21.80;56.90;;;;;;5041962;28;87046;-38
2022/08/28 06:21:15;;;;;;;;;;;21.70;56.90;;;;;;5041052;28;88827;-38
2022/08/28 06:23:40;;;;;;;;;;;21.70;57.00;;;;;;5042196;28;87011;-38
2022/08/28 06:26:06;;;;;;;;;;;21.70;57.00;;;;;;5041924;28;87402;-38
2022/08/28 06:28:32;;;;;;;;;;;21.80;57.00;;;;;;5042552;27;88664;-38
2022/08/28 06:31:00;;;;;;;;;;;21.70;57.00;;;;;;5048490;27;87130;-39
2022/08/28 06:33:25;;;;;;;;;;;21.70;57.00;;;;;;5044982;28;88194;-37
2022/08/28 06:35:52;;;;;;;;;;;21.70;57.00;;;;;;5044370;28;88095;-39
2022/08/28 06:38:19;;;;;;;;;;;21.70;57.10;;;;;;5045301;28;88364;-39
2022/08/28 06:40:46;;;;;;;;;;;21.70;57.00;;;;;;5044672;28;88559;-38
2022/08/28 06:43:12;;;;;;;;;;;21.80;57.10;;;;;;5045293;28;87137;-38
2022/08/28 06:45:41;;;;;;;;;;;21.70;57.10;;;;;;5044781;27;88840;-38
2022/08/28 06:48:07;;;;;;;;;;;21.80;57.10;;;;;;5044722;28;87285;-39
2022/08/28 06:50:36;;;;;;;;;;;21.80;57.00;;;;;;5048189;28;87053;-38
2022/08/28 06:53:02;;;;;;;;;;;21.80;57.00;;;;;;5045069;28;87356;-38
2022/08/28 06:55:27;;;;;;;;;;;21.80;57.00;;;;;;5045068;28;87154;-38
2022/08/28 06:57:53;;;;;;;;;;;21.80;57.10;;;;;;5044904;28;86974;-38
2022/08/28 07:00:18;;;;;;;;;;;21.80;57.10;;;;;;5043986;28;88139;-38
2022/08/28 07:02:44;;;;;;;;;;;21.80;57.00;;;;;;5045460;28;87240;-38
2022/08/28 07:05:09;;;;;;;;;;;21.80;57.10;;;;;;5044961;27;87316;-37
2022/08/28 07:07:35;;;;;;;;;;;21.80;57.10;;;;;;5044524;28;87935;-38
2022/08/28 07:10:00;;;;;;;;;;;21.80;57.10;;;;;;5044846;28;87062;-39
2022/08/28 07:12:26;;;;;;;;;;;21.80;57.10;;;;;;5046982;28;87380;-38
2022/08/28 07:14:51;;;;;;;;;;;21.80;57.10;;;;;;5044524;28;87075;-38
2022/08/28 07:17:17;;;;;;;;;;;21.80;57.10;;;;;;5045276;28;87475;-39
2022/08/28 07:19:42;;;;;;;;;;;21.80;57.10;;;;;;5044424;28;88016;-38
2022/08/28 07:22:08;;;;;;;;;;;21.80;57.10;;;;;;5044420;28;87155;-38
2022/08/28 07:24:33;;;;;;;;;;;21.80;57.10;;;;;;5043911;28;87900;-39
2022/08/28 07:26:59;;;;;;;;;;;21.80;57.10;;;;;;5044011;28;87994;-39
2022/08/28 07:29:24;;;;;;;;;;;21.80;57.10;;;;;;5044445;28;86945;-38
2022/08/28 07:31:51;;;;;;;;;;;21.80;57.10;;;;;;5044606;28;87576;-39
2022/08/28 07:34:18;;;;;;;;;;;21.80;57.20;;;;;;5046802;28;87877;-38
2022/08/28 07:36:44;;;;;;;;;;;21.80;57.10;;;;;;5044422;27;86977;-38
2022/08/28 07:39:10;;;;;;;;;;;21.80;57.20;;;;;;5044014;28;88197;-38
2022/08/28 07:41:38;;;;;;;;;;;21.80;57.20;;;;;;5044069;27;86238;-39
2022/08/28 07:46:52;;;;;;;;;;;21.80;57.30;;;;;;5042395;28;87292;-38
2022/08/28 07:49:17;;;;;;;;;;;21.80;57.30;;;;;;5043357;28;88055;-38
2022/08/28 07:51:43;;;;;;;;;;;21.80;57.30;;;;;;5043956;27;89751;-39
2022/08/28 07:54:09;;;;;;;;;;;21.80;57.30;;;;;;5043401;28;88093;-39
2022/08/28 07:56:39;;;;;;;;;;;21.80;57.40;;;;;;5046945;28;87001;-38
2022/08/28 07:59:05;;;;;;;;;;;21.80;57.40;;;;;;5043860;28;89503;-39
2022/08/28 08:01:34;;;;;;;;;;;21.80;57.50;;;;;;5043811;28;87141;-38
2022/08/28 08:04:00;;;;;;;;;;;21.80;57.50;;;;;;5043667;27;87846;-38
2022/08/28 08:06:32;;;;;;;;;;;21.90;57.50;;;;;;5044053;28;87378;-38
2022/08/28 08:08:57;;;;;;;;;;;21.80;57.50;;;;;;5043648;28;87134;-38
2022/08/28 08:11:23;;;;;;;;;;;21.90;57.60;;;;;;5043713;27;89389;-39
2022/08/28 08:13:48;;;;;;;;;;;21.80;57.50;;;;;;5042619;28;89054;-39
2022/08/28 08:16:16;;;;;;;;;;;21.90;57.50;;;;;;5043728;28;87115;-39
2022/08/28 08:18:42;;;;;;;;;;;21.90;57.60;;;;;;5046264;27;87022;-39
2022/08/28 08:21:10;;;;;;;;;;;21.90;57.70;;;;;;5043185;28;87044;-38
2022/08/28 08:23:37;;;;;;;;;;;21.90;57.60;;;;;;5043485;28;88983;-38
2022/08/28 08:26:05;;;;;;;;;;;21.90;57.60;;;;;;5043163;28;87880;-39
2022/08/28 08:28:33;;;;;;;;;;;21.90;57.60;;;;;;5043349;28;87130;-39
2022/08/28 08:31:05;;;;;;;;;;;21.90;57.60;;;;;;5043948;28;86587;-38
2022/08/28 08:33:31;;;;;;;;;;;21.90;57.50;;;;;;5042823;28;87981;-38
2022/08/28 08:35:57;;;;;;;;;;;22.00;57.50;;;;;;5043073;28;87124;-39
2022/08/28 08:38:22;;;;;;;;;;;21.90;57.50;;;;;;5042992;28;87905;-38
2022/08/28 08:40:48;;;;;;;;;;;22.00;57.50;;;;;;5045862;28;87933;-38
2022/08/28 08:43:15;;;;;;;;;;;22.00;57.50;;;;;;5043565;28;87304;-39
2022/08/28 08:45:42;;;;;;;;;;;22.00;57.40;;;;;;5042952;28;88340;-38
2022/08/28 08:48:12;;;;;;;;;;;22.00;58.00;;;;;;5043450;28;86966;-38
2022/08/28 08:50:40;;;;;;;;;;;22.00;57.40;;;;;;5042650;28;87415;-39
2022/08/28 08:53:22;;;;;;;;;;;22.00;57.40;;;;;;5040346;27;91116;-39
2022/08/28 08:55:49;;;;;;;;;;;22.00;57.40;;;;;;5043563;28;87182;-39
2022/08/28 08:58:33;;;;;;;;;;;22.00;57.40;;;;;;5042742;28;88477;-39
2022/08/28 09:01:14;;;;;;;;;;;22.10;57.40;;;;;;5045483;27;88040;-37
2022/08/28 09:03:54;;;;;;;;;;;22.10;57.30;;;;;;5042324;27;88761;-39
2022/08/28 09:06:35;;;;;;;;;;;22.10;57.40;;;;;;5042629;28;88163;-39
2022/08/28 09:09:04;;;;;;;;;;;22.00;57.30;;;;;;5043310;28;87247;-38
2022/08/28 09:11:37;;;;;;;;;;;22.10;57.40;;;;;;5043004;27;87314;-38
2022/08/28 09:14:23;;;;;;;;;;;22.10;57.40;;;;;;5042130;28;89512;-39
2022/08/28 09:16:49;;;;;;;;;;;22.10;57.40;;;;;;5042322;28;87132;-39
2022/08/28 09:19:17;;;;;;;;;;;22.10;57.40;;;;;;5043223;28;87413;-38
2022/08/28 09:21:43;;;;;;;;;;;22.10;57.40;;;;;;5042355;28;88611;-38
2022/08/28 09:24:30;;;;;;;;;;;22.20;57.40;;;;;;5045537;28;87238;-38
2022/08/28 09:27:25;;;;;;;;;;;22.20;57.40;;;;;;5041964;28;89549;-39
2022/08/28 09:29:55;;;;;;;;;;;22.20;57.40;;;;;;5031942;28;88044;-39
2022/08/28 09:32:23;;;;;;;;;;;22.20;57.50;;;;;;5042159;27;88453;-38
2022/08/28 09:35:04;;;;;;;;;;;22.20;57.50;;;;;;5041872;28;89781;-37
2022/08/28 09:37:33;;;;;;;;;;;22.20;57.60;;;;;;5042558;28;87603;-37
2022/08/28 09:40:13;;;;;;;;;;;22.20;57.50;;;;;;5042281;27;88799;-38
2022/08/28 09:45:24;;;;;;;;;;;22.30;57.50;;;;;;5042672;28;87095;-39
2022/08/28 09:47:51;;;;;;;;;;;22.30;57.50;;;;;;5045235;27;88272;-39
2022/08/28 09:50:18;;;;;;;;;;;22.30;57.50;;;;;;5041982;28;87063;-39
2022/08/28 09:52:44;;;;;;;;;;;22.30;57.50;;;;;;5023135;27;87074;-39
2022/08/28 09:55:13;;;;;;;;;;;22.30;58.50;;;;;;5020256;28;88981;-38
2022/08/28 09:57:41;;;;;;;;;;;22.40;58.60;;;;;;5021312;28;87180;-40
2022/08/28 10:00:07;;;;;;;;;;;22.40;58.30;;;;;;5022044;28;87407;-39
2022/08/28 10:02:52;;;;;;;;;;;22.50;57.90;;;;;;5021878;28;87122;-41
2022/08/28 10:05:26;;;;;;;;;;;22.50;58.30;;;;;;5023912;28;87223;-40
2022/08/28 10:07:58;;;;;;;;;;;22.80;60.60;;;;;;5025730;28;87774;-46
2022/08/28 10:10:40;;;;;;;;;;;23.00;61.60;;;;;;5027887;28;87246;-41
2022/08/28 10:13:14;;;;;;;;;;;23.10;59.80;;;;;;5025977;28;87422;-36
2022/08/28 10:15:40;;;;;;;;;;;23.30;58.30;;;;;;5024718;28;89635;-40
2022/08/28 10:18:24;;;;;;;;;;;23.30;56.50;;;;;;5025410;28;87144;-39
2022/08/28 10:21:12;;;;;;;;;;;23.30;54.30;;;;;;5024204;28;88097;-38
2022/08/28 10:23:43;;;;;;;;;;;23.30;53.90;;;;;;5023732;28;89689;-40
2022/08/28 10:26:12;;;;;;;;;;;23.50;53.60;;;;;;5023602;28;87027;-40
2022/08/28 10:28:49;;;;;;;;;;;23.70;54.20;;;;;;5024452;28;87641;-40
2022/08/28 10:31:37;;;;;;;;;;;23.60;53.20;;;;;;5025183;28;88336;-37
2022/08/28 10:34:22;;;;;;;;;;;23.70;52.60;;;;;;5028431;28;87080;-40
2022/08/28 10:36:56;;;;;;;;;;;23.70;52.90;;;;;;5024424;28;88169;-40
2022/08/28 10:39:24;;;;;;;;;;;23.80;53.70;;;;;;5023273;28;86456;-42
2022/08/28 10:41:54;;;;;;;;;;;23.90;51.60;;;;;;5023164;28;87818;-39
2022/08/28 10:44:27;;;;;;;;;;;23.90;50.50;;;;;;5022363;28;89442;-39
2022/08/28 10:46:54;;;;;;;;;;;23.90;48.20;;;;;;5022243;28;88096;-38
2022/08/28 10:49:26;;;;;;;;;;;23.90;47.50;;;;;;5023080;28;88543;-42
2022/08/28 10:51:54;;;;;;;;;;;24.10;48.90;;;;;;5022290;28;89356;-44
2022/08/28 10:54:22;;;;;;;;;;;24.20;49.50;;;;;;5024579;28;87100;-39
2022/08/28 10:57:17;;;;;;;;;;;24.30;48.80;;;;;;5033174;28;87474;-39
2022/08/28 10:59:45;;;;;;;;;;;24.40;49.50;;;;;;5034943;28;88149;-38
2022/08/28 11:02:12;;;;;;;;;;;24.50;49.90;;;;;;5045199;27;87385;-41
2022/08/28 11:04:37;;;;;;;;;;;24.50;49.60;;;;;;5044845;28;88715;-39
2022/08/28 11:07:07;;;;;;;;;;;24.50;50.00;;;;;;5044815;28;87024;-38
2022/08/28 11:09:38;;;;;;;;;;;24.60;50.50;;;;;;5044751;27;87403;-41
2022/08/28 11:12:26;;;;;;;;;;;24.50;50.60;;;;;;5043586;28;88293;-40
2022/08/28 11:14:52;;;;;;;;;;;24.50;49.90;;;;;;5043132;27;87150;-41
2022/08/28 11:17:20;;;;;;;;;;;24.60;51.70;;;;;;5046879;27;87379;-41
2022/08/28 11:19:52;;;;;;;;;;;24.70;51.50;;;;;;5044617;28;87414;-39
2022/08/28 11:22:22;;;;;;;;;;;24.80;51.50;;;;;;5043836;27;87454;-44
2022/08/28 11:25:08;;;;;;;;;;;24.70;50.90;;;;;;5043871;28;88031;-41
2022/08/28 11:27:35;;;;;;;;;;;24.80;51.90;;;;;;5043838;27;87246;-38
2022/08/28 11:30:00;;;;;;;;;;;24.80;51.10;;;;;;5044886;28;87597;-40
2022/08/28 11:32:27;;;;;;;;;;;24.90;52.00;;;;;;5044131;28;88115;-40
2022/08/28 11:34:58;;;;;;;;;;;25.00;51.40;;;;;;5044377;28;87694;-38
2022/08/28 11:37:44;;;;;;;;;;;25.00;52.70;;;;;;5043309;27;88623;-44
2022/08/28 11:40:39;;;;;;;;;;;25.00;50.40;;;;;;5046619;28;89300;-45
2022/08/28 11:43:14;;;;;;;;;;;25.00;51.50;;;;;;5043954;27;89095;-39
2022/08/28 11:45:42;;;;;;;;;;;25.10;52.40;;;;;;5043892;28;87426;-41
2022/08/28 11:48:28;;;;;;;;;;;25.20;53.80;;;;;;5043950;28;87059;-41
2022/08/28 11:50:55;;;;;;;;;;;25.20;52.80;;;;;;5043919;28;87431;-43
2022/08/28 11:53:36;;;;;;;;;;;25.20;53.90;;;;;;5043522;28;88177;-44
2022/08/28 11:56:07;;;;;;;;;;;25.20;54.60;;;;;;5044177;28;86515;-45
2022/08/28 11:58:37;;;;;;;;;;;25.20;54.30;;;;;;5043919;28;86976;-42
2022/08/28 12:01:04;;;;;;;;;;;25.10;55.20;;;;;;5043499;28;87345;-50
2022/08/28 12:03:33;;;;;;;;;;;25.20;51.20;;;;;;5046009;28;88035;-37
2022/08/28 12:05:59;;;;;;;;;;;25.20;49.80;;;;;;5043254;28;89190;-36
2022/08/28 12:08:43;;;;;;;;;;;25.20;48.10;;;;;;5043941;28;87077;-37
2022/08/28 12:11:10;;;;;;;;;;;25.20;47.20;;;;;;5043998;28;87493;-36
2022/08/28 12:13:49;;;;;;;;;;;25.20;47.10;;;;;;5043371;28;87954;-37
2022/08/28 12:16:14;;;;;;;;;;;25.20;46.30;;;;;;5043641;28;87103;-37
2022/08/28 12:18:41;;;;;;;;;;;25.20;45.80;;;;;;5044110;27;87936;-38
2022/08/28 12:21:37;;;;;;;;;;;25.20;46.30;;;;;;5043663;28;89081;-35
2022/08/28 12:24:04;;;;;;;;;;;25.20;45.20;;;;;;5034272;28;87143;-38
2022/08/28 12:26:30;;;;;;;;;;;25.20;44.10;;;;;;5045664;27;88854;-37
2022/08/28 12:28:58;;;;;;;;;;;25.20;45.50;;;;;;5042940;28;88365;-37
2022/08/28 12:34:44;;;;;;;;;;;25.40;47.80;;;;;;5042836;27;89172;-37
2022/08/28 12:37:21;;;;;;;;;;;25.40;48.20;;;;;;5043051;28;87109;-35
2022/08/28 12:39:47;;;;;;;;;;;25.40;47.80;;;;;;5043449;27;87402;-37
2022/08/28 12:42:16;;;;;;;;;;;25.50;46.60;;;;;;5043174;28;87351;-36
2022/08/28 12:44:42;;;;;;;;;;;25.60;47.00;;;;;;5042922;28;87127;-38
2022/08/28 12:47:07;;;;;;;;;;;25.60;46.50;;;;;;5044062;27;87464;-38
2022/08/28 12:49:34;;;;;;;;;;;25.50;48.00;;;;;;5045777;28;88225;-35
2022/08/28 12:52:09;;;;;;;;;;;25.50;46.20;;;;;;5043113;28;87447;-34
2022/08/28 12:54:34;;;;;;;;;;;25.50;43.80;;;;;;5041856;28;90626;-35
2022/08/28 12:57:03;;;;;;;;;;;25.60;45.30;;;;;;5043055;28;87018;-38
2022/08/28 12:59:31;;;;;;;;;;;25.70;46.60;;;;;;5042983;28;87441;-42
2022/08/28 13:02:05;;;;;;;;;;;25.80;48.40;;;;;;5042957;28;88170;-38
2022/08/28 13:04:37;;;;;;;;;;;25.80;46.60;;;;;;5042968;28;87061;-38
2022/08/28 13:07:06;;;;;;;;;;;25.80;45.60;;;;;;5042703;27;88849;-38
2022/08/28 13:09:32;;;;;;;;;;;25.80;47.00;;;;;;5042686;28;87984;-38
2022/08/28 13:11:57;;;;;;;;;;;25.70;47.60;;;;;;5046176;28;86242;-39
2022/08/28 13:14:36;;;;;;;;;;;25.80;48.10;;;;;;5042575;28;88132;-38
2022/08/28 13:17:01;;;;;;;;;;;25.70;48.30;;;;;;5042854;28;86971;-38
2022/08/28 13:19:29;;;;;;;;;;;25.70;48.50;;;;;;5042535;28;87908;-43
2022/08/28 13:21:59;;;;;;;;;;;25.70;48.50;;;;;;5042016;28;89646;-38
2022/08/28 13:24:26;;;;;;;;;;;25.80;47.70;;;;;;5042688;28;87007;-42
2022/08/28 13:27:20;;;;;;;;;;;25.90;48.50;;;;;;5042633;27;88745;-40
2022/08/28 13:29:51;;;;;;;;;;;25.90;47.10;;;;;;5032790;28;88054;-41
2022/08/28 13:32:17;;;;;;;;;;;25.90;46.60;;;;;;5046025;28;87224;-39
2022/08/28 13:35:01;;;;;;;;;;;26.00;43.60;;;;;;5042368;28;89505;-39
2022/08/28 13:37:43;;;;;;;;;;;26.00;44.10;;;;;;5043345;28;86269;-39
2022/08/28 13:40:10;;;;;;;;;;;26.00;45.10;;;;;;5042446;27;88237;-40
2022/08/28 13:42:35;;;;;;;;;;;26.00;45.30;;;;;;5042549;28;87987;-40
2022/08/28 13:45:01;;;;;;;;;;;26.00;44.10;;;;;;5041954;28;88031;-40
2022/08/28 13:47:26;;;;;;;;;;;26.00;43.20;;;;;;5042196;28;89997;-39
2022/08/28 13:49:52;;;;;;;;;;;26.00;42.50;;;;;;5042338;28;88025;-39
2022/08/28 13:52:17;;;;;;;;;;;26.00;43.90;;;;;;5042690;28;87068;-40
2022/08/28 13:54:43;;;;;;;;;;;26.00;44.00;;;;;;5045424;28;87899;-40
2022/08/28 13:57:09;;;;;;;;;;;26.00;42.30;;;;;;5042259;28;87232;-40
2022/08/28 13:59:35;;;;;;;;;;;26.10;42.50;;;;;;5042655;27;86982;-40
2022/08/28 14:04:47;;;;;;;;;;;26.20;43.00;;;;;;5042672;28;86905;-40
2022/08/28 14:07:13;;;;;;;;;;;26.30;43.30;;;;;;5042610;28;87602;-39
2022/08/28 14:09:39;;;;;;;;;;;26.30;44.40;;;;;;5041089;28;90248;-39
2022/08/28 14:12:05;;;;;;;;;;;26.30;43.30;;;;;;5042466;28;87135;-38
2022/08/28 14:14:31;;;;;;;;;;;26.30;41.80;;;;;;5041875;27;87458;-43
2022/08/28 14:16:57;;;;;;;;;;;26.30;40.80;;;;;;5044795;28;87680;-39
2022/08/28 14:19:22;;;;;;;;;;;26.30;41.10;;;;;;5042155;27;88164;-39
2022/08/28 14:21:48;;;;;;;;;;;26.30;41.60;;;;;;5040169;28;91264;-39
2022/08/28 14:24:13;;;;;;;;;;;26.40;42.20;;;;;;5042336;28;87229;-39
2022/08/28 14:26:39;;;;;;;;;;;26.40;43.10;;;;;;5042705;27;87874;-40
2022/08/28 14:29:06;;;;;;;;;;;26.40;44.30;;;;;;5041633;28;88458;-39
2022/08/28 14:31:34;;;;;;;;;;;26.40;45.40;;;;;;5041569;28;87087;-38
2022/08/28 14:34:00;;;;;;;;;;;26.50;46.10;;;;;;5041015;27;88867;-39
2022/08/28 14:36:27;;;;;;;;;;;26.50;46.50;;;;;;5041290;28;88244;-43